METAR Formatted Surface Weather Observation
Issued by NWS

Home | Current Version | Previous Version | Text Only | Print | Product List | Glossary On
Versions: 1 2 3 4 5 6 7 8 9 10 11 12 13 14 15
000
SAUS44 KEWX 240552
MTRHDO
METAR KHDO 240551Z AUTO 13008KT 10SM CLR 26/22 A3013 RMK AO2 SLP187
T02560217 10322 20256 403440256 51018 TSNO



USA.gov is the U.S. government's official web portal to all federal, state and local government web resources and services.